Time,TemperatureF,DewpointF,PressureIn,WindDirection,WindDirectionDegrees,WindSpeedMPH,WindSpeedGustMPH,Humidity,HourlyPrecipIn,Conditions,Clouds,dailyrainin,SoftwareType,DateUTC
2013-01-17 00:05:00,41.5,40.5,30.05,West,269,1.0,2.0,96,0.01,,---,0.00,VWS V14.01,2013-01-17 06:05:00,
2013-01-17 00:10:00,41.4,40.3,30.05,WSW,256,0.0,3.0,96,0.01,,---,0.00,VWS V14.01,2013-01-17 06:10:00,
2013-01-17 00:15:00,41.3,40.2,30.05,WSW,253,1.0,1.0,96,0.01,,---,0.00,VWS V14.01,2013-01-17 06:15:00,
2013-01-17 00:20:00,41.3,40.2,30.06,WNW,294,0.0,0.0,96,0.01,,---,0.00,VWS V14.01,2013-01-17 06:20:00,
2013-01-17 00:25:00,41.3,40.5,30.06,WSW,250,0.0,1.0,97,0.01,,---,0.00,VWS V14.01,2013-01-17 06:25:00,
2013-01-17 00:30:00,41.2,40.4,30.06,WSW,255,2.0,4.0,97,0.01,,---,0.00,VWS V14.01,2013-01-17 06:30:00,
2013-01-17 00:35:00,41.3,40.5,30.06,WSW,248,0.0,1.0,97,0.01,,---,0.00,VWS V14.01,2013-01-17 06:35:00,
2013-01-17 00:40:00,41.2,40.4,30.06,West,274,2.0,5.0,97,0.01,,---,0.00,VWS V14.01,2013-01-17 06:40:00,
2013-01-17 00:45:00,41.2,40.4,30.06,NW,308,1.0,3.0,97,0.00,,---,0.00,VWS V14.01,2013-01-17 06:45:00,
2013-01-17 00:50:00,41.2,40.4,30.06,West,278,0.0,1.0,97,0.00,,---,0.00,VWS V14.01,2013-01-17 06:50:00,
2013-01-17 00:55:00,41.1,40.0,30.06,SW,222,2.0,3.0,96,0.00,,---,0.00,VWS V14.01,2013-01-17 06:55:00,
2013-01-17 01:00:00,40.8,39.8,30.06,WNW,291,2.0,5.0,96,0.00,,---,0.00,VWS V14.01,2013-01-17 07:00:00,
2013-01-17 01:05:00,40.6,39.5,30.06,West,267,1.0,4.0,96,0.00,,---,0.00,VWS V14.01,2013-01-17 07:05:00,
2013-01-17 01:10:00,40.6,39.5,30.07,SW,225,1.0,1.0,96,0.00,,---,0.00,VWS V14.01,2013-01-17 07:10:00,
2013-01-17 01:15:00,40.4,39.3,30.07,West,262,4.0,6.0,96,0.00,,---,0.00,VWS V14.01,2013-01-17 07:15:00,
2013-01-17 01:20:00,40.2,39.2,30.07,NW,318,0.0,5.0,96,0.00,,---,0.00,VWS V14.01,2013-01-17 07:20:00,
2013-01-17 01:25:00,40.3,39.2,30.07,NNW,336,1.0,2.0,96,0.00,,---,0.00,VWS V14.01,2013-01-17 07:25:00,
2013-01-17 01:30:00,40.1,39.0,30.07,NNW,330,1.0,3.0,96,0.00,,---,0.00,VWS V14.01,2013-01-17 07:30:00,
2013-01-17 01:35:00,40.1,39.0,30.07,NW,308,0.0,1.0,96,0.00,,---,0.00,VWS V14.01,2013-01-17 07:35:00,
2013-01-17 01:40:00,40.2,39.2,30.07,WSW,256,1.0,1.0,96,0.00,,---,0.00,VWS V14.01,2013-01-17 07:40:00,
2013-01-17 01:45:00,40.3,39.2,30.07,WSW,240,3.0,4.0,96,0.00,,---,0.00,VWS V14.01,2013-01-17 07:45:00,
2013-01-17 01:50:00,40.1,39.0,30.07,SW,226,4.0,4.0,96,0.00,,---,0.00,VWS V14.01,2013-01-17 07:50:00,
2013-01-17 01:55:00,39.9,38.8,30.07,WNW,295,3.0,9.0,96,0.00,,---,0.00,VWS V14.01,2013-01-17 07:55:00,
2013-01-17 02:01:00,39.8,38.8,30.07,SW,215,1.0,2.0,96,0.00,,---,0.00,VWS V14.01,2013-01-17 08:01:00,
2013-01-17 02:07:00,39.8,38.8,30.07,SW,228,3.0,6.0,96,0.00,,---,0.00,VWS V14.01,2013-01-17 08:07:00,
2013-01-17 02:13:00,39.7,38.7,30.07,WSW,248,3.0,3.0,96,0.00,,---,0.00,VWS V14.01,2013-01-17 08:13:00,
2013-01-17 02:18:00,39.5,38.5,30.07,NNW,339,2.0,3.0,96,0.00,,---,0.00,VWS V14.01,2013-01-17 08:18:00,
2013-01-17 02:23:00,39.2,38.2,30.07,NW,313,2.0,8.0,96,0.00,,---,0.00,VWS V14.01,2013-01-17 08:23:00,
2013-01-17 02:28:00,39.1,38.1,30.07,WSW,253,3.0,8.0,96,0.00,,---,0.00,VWS V14.01,2013-01-17 08:28:00,
2013-01-17 02:33:00,39.0,38.0,30.07,West,259,1.0,6.0,96,0.00,,---,0.00,VWS V14.01,2013-01-17 08:33:00,
2013-01-17 02:39:00,39.1,38.1,30.08,WNW,289,3.0,5.0,96,0.00,,---,0.00,VWS V14.01,2013-01-17 08:39:00,
2013-01-17 02:44:00,39.0,38.0,30.08,WNW,290,5.0,5.0,96,0.00,,---,0.00,VWS V14.01,2013-01-17 08:44:00,
2013-01-17 02:50:00,38.8,37.8,30.08,West,281,2.0,3.0,96,0.01,,---,0.01,VWS V14.01,2013-01-17 08:50:00,
2013-01-17 02:55:00,38.7,37.7,30.08,West,267,4.0,8.0,96,0.01,,---,0.01,VWS V14.01,2013-01-17 08:55:00,
2013-01-17 03:00:00,38.5,37.5,30.08,NW,307,0.0,4.0,96,0.01,,---,0.01,VWS V14.01,2013-01-17 09:00:00,
2013-01-17 03:06:00,38.4,37.4,30.08,West,263,4.0,5.0,96,0.01,,---,0.01,VWS V14.01,2013-01-17 09:06:00,
2013-01-17 03:11:00,38.2,37.2,30.08,WSW,245,3.0,6.0,96,0.01,,---,0.01,VWS V14.01,2013-01-17 09:11:00,
2013-01-17 03:16:00,38.1,37.1,30.08,NW,311,1.0,2.0,96,0.01,,---,0.01,VWS V14.01,2013-01-17 09:16:00,
2013-01-17 03:21:00,38.0,37.0,30.08,WSW,247,3.0,4.0,96,0.01,,---,0.01,VWS V14.01,2013-01-17 09:21:00,
2013-01-17 03:26:00,37.9,36.9,30.08,West,263,3.0,9.0,96,0.01,,---,0.01,VWS V14.01,2013-01-17 09:26:00,
2013-01-17 03:31:00,37.9,36.9,30.08,WNW,302,2.0,3.0,96,0.01,,---,0.01,VWS V14.01,2013-01-17 09:31:00,
2013-01-17 03:36:00,37.8,36.8,30.08,WNW,287,2.0,4.0,96,0.01,,---,0.01,VWS V14.01,2013-01-17 09:36:00,
2013-01-17 03:42:00,37.8,36.8,30.09,WNW,287,3.0,4.0,96,0.01,,---,0.01,VWS V14.01,2013-01-17 09:42:00,
2013-01-17 03:48:00,37.7,36.7,30.09,West,263,0.0,5.0,96,0.00,,---,0.01,VWS V14.01,2013-01-17 09:48:00,
2013-01-17 03:53:00,37.7,36.7,30.09,WSW,257,6.0,13.0,96,0.00,,---,0.01,VWS V14.01,2013-01-17 09:53:00,
2013-01-17 03:59:00,37.6,36.6,30.09,WSW,243,2.0,3.0,96,0.00,,---,0.01,VWS V14.01,2013-01-17 09:59:00,
2013-01-17 04:04:00,37.5,36.5,30.08,WNW,302,1.0,4.0,96,0.00,,---,0.01,VWS V14.01,2013-01-17 10:04:00,
2013-01-17 04:10:00,37.5,36.5,30.08,West,259,2.0,3.0,96,0.00,,---,0.01,VWS V14.01,2013-01-17 10:10:00,
2013-01-17 04:15:00,37.4,36.4,30.08,North,6,2.0,3.0,96,0.01,,---,0.02,VWS V14.01,2013-01-17 10:15:00,
2013-01-17 04:20:00,37.4,36.4,30.08,WNW,285,1.0,6.0,96,0.01,,---,0.02,VWS V14.01,2013-01-17 10:20:00,
2013-01-17 04:25:00,37.4,36.4,30.08,WNW,290,1.0,5.0,96,0.01,,---,0.02,VWS V14.01,2013-01-17 10:25:00,
2013-01-17 04:31:00,37.4,36.4,30.09,West,276,2.0,5.0,96,0.01,,---,0.02,VWS V14.01,2013-01-17 10:31:00,
2013-01-17 04:36:00,37.4,36.4,30.08,WNW,287,3.0,3.0,96,0.01,,---,0.02,VWS V14.01,2013-01-17 10:36:00,
2013-01-17 04:41:00,37.3,36.3,30.08,WNW,302,1.0,2.0,96,0.01,,---,0.02,VWS V14.01,2013-01-17 10:41:00,
2013-01-17 04:46:00,37.4,36.4,30.09,West,278,1.0,1.0,96,0.01,,---,0.02,VWS V14.01,2013-01-17 10:46:00,
2013-01-17 04:52:00,37.4,36.4,30.09,NW,321,1.0,4.0,96,0.01,,---,0.02,VWS V14.01,2013-01-17 10:52:00,
2013-01-17 04:57:00,37.3,36.3,30.09,West,273,2.0,7.0,96,0.01,,---,0.02,VWS V14.01,2013-01-17 10:57:00,
2013-01-17 05:03:00,37.3,36.3,30.10,West,277,1.0,3.0,96,0.01,,---,0.02,VWS V14.01,2013-01-17 11:03:00,
2013-01-17 05:08:00,37.4,36.4,30.10,West,266,2.0,4.0,96,0.01,,---,0.02,VWS V14.01,2013-01-17 11:08:00,
2013-01-17 05:13:00,37.4,36.4,30.10,West,271,3.0,4.0,96,0.00,,---,0.02,VWS V14.01,2013-01-17 11:13:00,
2013-01-17 05:18:00,37.4,36.4,30.10,NNW,337,1.0,2.0,96,0.00,,---,0.02,VWS V14.01,2013-01-17 11:18:00,
2013-01-17 05:23:00,37.4,36.4,30.10,WNW,301,2.0,3.0,96,0.00,,---,0.02,VWS V14.01,2013-01-17 11:23:00,
2013-01-17 05:29:00,37.3,36.3,30.10,NW,318,4.0,7.0,96,0.00,,---,0.02,VWS V14.01,2013-01-17 11:29:00,
2013-01-17 05:34:00,37.3,36.3,30.10,NW,318,0.0,2.0,96,0.00,,---,0.02,VWS V14.01,2013-01-17 11:34:00,
2013-01-17 05:40:00,37.2,36.2,30.11,West,259,2.0,3.0,96,0.00,,---,0.02,VWS V14.01,2013-01-17 11:40:00,
2013-01-17 05:46:00,37.0,36.0,30.11,WSW,253,3.0,3.0,96,0.00,,---,0.02,VWS V14.01,2013-01-17 11:46:00,
2013-01-17 05:51:00,36.9,35.9,30.11,West,274,1.0,2.0,96,0.01,,---,0.03,VWS V14.01,2013-01-17 11:51:00,
2013-01-17 05:57:00,36.8,35.8,30.11,NNE,15,0.0,5.0,96,0.01,,---,0.03,VWS V14.01,2013-01-17 11:57:00,
2013-01-17 06:03:00,36.8,35.8,30.12,NW,307,5.0,5.0,96,0.01,,---,0.03,VWS V14.01,2013-01-17 12:03:00,
2013-01-17 06:08:00,36.6,35.6,30.11,WNW,301,1.0,5.0,96,0.01,,---,0.03,VWS V14.01,2013-01-17 12:08:00,
2013-01-17 06:13:00,36.5,35.5,30.12,West,259,2.0,5.0,96,0.01,,---,0.03,VWS V14.01,2013-01-17 12:13:00,
2013-01-17 06:18:00,36.4,35.1,30.12,WNW,287,1.0,4.0,95,0.01,,---,0.03,VWS V14.01,2013-01-17 12:18:00,
2013-01-17 06:23:00,36.3,35.0,30.12,ENE,68,3.0,3.0,95,0.01,,---,0.03,VWS V14.01,2013-01-17 12:23:00,
2013-01-17 06:28:00,36.3,35.3,30.12,WNW,296,2.0,4.0,96,0.01,,---,0.03,VWS V14.01,2013-01-17 12:28:00,
2013-01-17 06:33:00,36.3,35.3,30.12,NW,311,1.0,2.0,96,0.01,,---,0.03,VWS V14.01,2013-01-17 12:33:00,
2013-01-17 06:39:00,36.2,35.2,30.12,WNW,296,2.0,4.0,96,0.01,,---,0.03,VWS V14.01,2013-01-17 12:39:00,
2013-01-17 06:44:00,36.1,34.8,30.13,SW,232,5.0,5.0,95,0.01,,---,0.03,VWS V14.01,2013-01-17 12:44:00,
2013-01-17 06:50:00,36.0,34.7,30.13,WNW,302,4.0,5.0,95,0.01,,---,0.03,VWS V14.01,2013-01-17 12:50:00,
2013-01-17 06:55:00,36.1,34.8,30.13,NW,322,4.0,6.0,95,0.00,,---,0.03,VWS V14.01,2013-01-17 12:55:00,
2013-01-17 07:00:00,36.0,34.7,30.13,SW,235,2.0,2.0,95,0.00,,---,0.03,VWS V14.01,2013-01-17 13:00:00,
2013-01-17 07:05:00,36.0,34.7,30.14,NW,318,2.0,4.0,95,0.00,,---,0.03,VWS V14.01,2013-01-17 13:05:00,
2013-01-17 07:10:00,36.0,34.4,30.14,WNW,290,5.0,13.0,94,0.00,,---,0.03,VWS V14.01,2013-01-17 13:10:00,
2013-01-17 07:15:00,36.0,34.4,30.14,NW,307,1.0,4.0,94,0.00,,---,0.03,VWS V14.01,2013-01-17 13:15:00,
2013-01-17 07:21:00,36.0,34.2,30.14,North,353,6.0,6.0,93,0.00,,---,0.03,VWS V14.01,2013-01-17 13:21:00,
2013-01-17 07:26:00,36.1,34.3,30.15,WSW,258,2.0,4.0,93,0.00,,---,0.03,VWS V14.01,2013-01-17 13:26:00,
2013-01-17 07:32:00,36.1,34.0,30.16,North,6,3.0,12.0,92,0.00,,---,0.03,VWS V14.01,2013-01-17 13:32:00,
2013-01-17 07:37:00,36.1,34.0,30.16,WNW,300,3.0,6.0,92,0.00,,---,0.03,VWS V14.01,2013-01-17 13:37:00,
2013-01-17 07:43:00,36.1,34.0,30.16,WNW,297,1.0,7.0,92,0.00,,---,0.03,VWS V14.01,2013-01-17 13:43:00,
2013-01-17 07:49:00,36.1,33.7,30.17,NW,305,2.0,8.0,91,0.00,,---,0.03,VWS V14.01,2013-01-17 13:49:00,
2013-01-17 07:54:00,36.1,33.7,30.17,SW,235,3.0,3.0,91,0.00,,---,0.03,VWS V14.01,2013-01-17 13:54:00,
2013-01-17 07:59:00,36.2,33.6,30.17,NW,318,2.0,4.0,90,0.00,,---,0.03,VWS V14.01,2013-01-17 13:59:00,
2013-01-17 08:04:00,36.2,33.6,30.17,ENE,67,4.0,11.0,90,0.00,,---,0.03,VWS V14.01,2013-01-17 14:04:00,
2013-01-17 08:09:00,36.3,33.7,30.18,North,355,3.0,5.0,90,0.00,,---,0.03,VWS V14.01,2013-01-17 14:09:00,
2013-01-17 08:14:00,36.4,33.5,30.18,North,358,2.0,2.0,89,0.00,,---,0.03,VWS V14.01,2013-01-17 14:14:00,
2013-01-17 08:19:00,36.7,33.8,30.18,WNW,290,1.0,3.0,89,0.00,,---,0.03,VWS V14.01,2013-01-17 14:19:00,
2013-01-17 08:25:00,36.9,34.0,30.18,NNW,346,5.0,8.0,89,0.00,,---,0.03,VWS V14.01,2013-01-17 14:25:00,
2013-01-17 08:30:00,37.0,33.8,30.19,WNW,289,4.0,4.0,88,0.00,,---,0.03,VWS V14.01,2013-01-17 14:30:00,
2013-01-17 08:35:00,37.1,33.9,30.19,WNW,295,1.0,7.0,88,0.00,,---,0.03,VWS V14.01,2013-01-17 14:35:00,
2013-01-17 08:40:00,37.3,34.4,30.19,NNW,328,5.0,5.0,89,0.00,,---,0.03,VWS V14.01,2013-01-17 14:40:00,
2013-01-17 08:45:00,37.3,33.8,30.19,North,353,10.0,10.0,87,0.00,,---,0.03,VWS V14.01,2013-01-17 14:45:00,
2013-01-17 08:51:00,37.6,34.4,30.19,NW,325,3.0,4.0,88,0.00,,---,0.03,VWS V14.01,2013-01-17 14:51:00,
2013-01-17 08:56:00,37.6,34.4,30.20,NW,308,3.0,4.0,88,0.00,,---,0.03,VWS V14.01,2013-01-17 14:56:00,
2013-01-17 09:01:00,37.8,34.6,30.20,NNW,328,4.0,6.0,88,0.00,,---,0.03,VWS V14.01,2013-01-17 15:01:00,
2013-01-17 09:06:00,37.9,34.4,30.20,NW,323,3.0,4.0,87,0.00,,---,0.03,VWS V14.01,2013-01-17 15:06:00,
2013-01-17 09:12:00,38.0,34.2,30.21,NNW,328,1.0,7.0,86,0.00,,---,0.03,VWS V14.01,2013-01-17 15:12:00,
2013-01-17 09:18:00,38.0,34.2,30.20,WSW,241,2.0,3.0,86,0.00,,---,0.03,VWS V14.01,2013-01-17 15:18:00,
2013-01-17 09:23:00,38.2,34.7,30.21,West,264,3.0,4.0,87,0.00,,---,0.03,VWS V14.01,2013-01-17 15:23:00,
2013-01-17 09:28:00,38.4,34.6,30.21,WNW,283,1.0,3.0,86,0.00,,---,0.03,VWS V14.01,2013-01-17 15:28:00,
2013-01-17 09:34:00,38.7,35.2,30.22,WSW,256,3.0,3.0,87,0.00,,---,0.03,VWS V14.01,2013-01-17 15:34:00,
2013-01-17 09:39:00,38.6,34.8,30.21,WSW,243,2.0,7.0,86,0.00,,---,0.03,VWS V14.01,2013-01-17 15:39:00,
2013-01-17 09:44:00,38.7,34.6,30.22,WNW,293,4.0,5.0,85,0.00,,---,0.03,VWS V14.01,2013-01-17 15:44:00,
2013-01-17 09:50:00,38.7,34.9,30.21,NNW,338,4.0,6.0,86,0.00,,---,0.03,VWS V14.01,2013-01-17 15:50:00,
2013-01-17 09:55:00,39.0,35.2,30.22,SW,226,1.0,3.0,86,0.00,,---,0.03,VWS V14.01,2013-01-17 15:55:00,
2013-01-17 10:00:00,39.3,35.2,30.23,WSW,248,3.0,7.0,85,0.00,,---,0.03,VWS V14.01,2013-01-17 16:00:00,
2013-01-17 10:05:00,39.5,35.4,30.23,WNW,302,3.0,9.0,85,0.00,,---,0.03,VWS V14.01,2013-01-17 16:05:00,
2013-01-17 10:10:00,40.0,35.6,30.23,NNE,26,4.0,7.0,84,0.00,,---,0.03,VWS V14.01,2013-01-17 16:10:00,
2013-01-17 10:15:00,40.2,35.8,30.22,NNW,345,4.0,5.0,84,0.00,,---,0.03,VWS V14.01,2013-01-17 16:15:00,
2013-01-17 10:20:00,40.7,36.0,30.22,North,352,5.0,6.0,83,0.00,,---,0.03,VWS V14.01,2013-01-17 16:20:00,
2013-01-17 10:25:00,40.8,35.7,30.21,NNW,335,3.0,7.0,82,0.00,,---,0.03,VWS V14.01,2013-01-17 16:25:00,
2013-01-17 10:30:00,41.3,36.2,30.20,NW,312,3.0,6.0,82,0.00,,---,0.03,VWS V14.01,2013-01-17 16:30:00,
2013-01-17 10:36:00,41.8,36.4,30.20,NNW,345,2.0,4.0,81,0.00,,---,0.03,VWS V14.01,2013-01-17 16:36:00,
2013-01-17 10:41:00,42.2,36.5,30.20,West,269,7.0,7.0,80,0.00,,---,0.03,VWS V14.01,2013-01-17 16:41:00,
2013-01-17 10:46:00,42.2,36.2,30.19,WSW,250,3.0,9.0,79,0.00,,---,0.03,VWS V14.01,2013-01-17 16:46:00,
2013-01-17 10:51:00,42.8,36.8,30.19,NW,315,2.0,6.0,79,0.00,,---,0.03,VWS V14.01,2013-01-17 16:51:00,
2013-01-17 10:57:00,43.1,36.4,30.20,WNW,301,2.0,7.0,77,0.00,,---,0.03,VWS V14.01,2013-01-17 16:57:00,
2013-01-17 11:02:00,43.2,36.8,30.21,NNW,345,3.0,5.0,78,0.00,,---,0.03,VWS V14.01,2013-01-17 17:02:00,
2013-01-17 11:07:00,43.3,36.6,30.20,NW,317,6.0,6.0,77,0.00,,---,0.03,VWS V14.01,2013-01-17 17:07:00,
2013-01-17 11:13:00,43.1,36.1,30.19,NW,304,1.0,2.0,76,0.00,,---,0.03,VWS V14.01,2013-01-17 17:13:00,
2013-01-17 11:18:00,43.2,36.5,30.20,NW,314,2.0,5.0,77,0.00,,---,0.03,VWS V14.01,2013-01-17 17:18:00,
2013-01-17 11:24:00,43.7,37.0,30.20,NE,41,5.0,5.0,77,0.00,,---,0.03,VWS V14.01,2013-01-17 17:24:00,
2013-01-17 11:29:00,44.3,36.9,30.20,NNW,333,3.0,10.0,75,0.00,,---,0.03,VWS V14.01,2013-01-17 17:29:00,
2013-01-17 11:34:00,44.4,37.0,30.19,SSE,161,3.0,4.0,75,0.00,,---,0.03,VWS V14.01,2013-01-17 17:34:00,
2013-01-17 11:39:00,44.7,37.6,30.19,NNW,336,4.0,5.0,76,0.00,,---,0.03,VWS V14.01,2013-01-17 17:39:00,
2013-01-17 11:45:00,44.9,36.8,30.19,NW,304,5.0,7.0,73,0.00,,---,0.03,VWS V14.01,2013-01-17 17:45:00,
2013-01-17 11:50:00,44.8,36.7,30.19,WSW,255,5.0,8.0,73,0.00,,---,0.03,VWS V14.01,2013-01-17 17:50:00,
2013-01-17 11:55:00,45.4,37.6,30.19,NW,317,3.0,5.0,74,0.00,,---,0.03,VWS V14.01,2013-01-17 17:55:00,
2013-01-17 12:01:00,45.9,37.4,30.19,NNW,338,5.0,6.0,72,0.00,,---,0.03,VWS V14.01,2013-01-17 18:01:00,
2013-01-17 12:06:00,45.9,38.1,30.20,NNE,17,3.0,6.0,74,0.00,,---,0.03,VWS V14.01,2013-01-17 18:06:00,
2013-01-17 12:11:00,46.3,37.8,30.19,NW,326,3.0,5.0,72,0.00,,---,0.03,VWS V14.01,2013-01-17 18:11:00,
2013-01-17 12:16:00,46.9,38.4,30.19,NNW,333,6.0,7.0,72,0.00,,---,0.03,VWS V14.01,2013-01-17 18:16:00,
2013-01-17 12:21:00,47.3,38.0,30.19,WNW,302,3.0,11.0,70,0.00,,---,0.03,VWS V14.01,2013-01-17 18:21:00,
2013-01-17 12:26:00,47.3,38.0,30.19,NW,307,3.0,9.0,70,0.00,,---,0.03,VWS V14.01,2013-01-17 18:26:00,
2013-01-17 12:31:00,47.4,38.1,30.18,WNW,300,2.0,5.0,70,0.00,,---,0.03,VWS V14.01,2013-01-17 18:31:00,
2013-01-17 12:36:00,47.3,37.7,30.18,NE,49,4.0,8.0,69,0.00,,---,0.03,VWS V14.01,2013-01-17 18:36:00,
2013-01-17 12:41:00,47.4,38.1,30.18,NW,314,3.0,4.0,70,0.00,,---,0.03,VWS V14.01,2013-01-17 18:41:00,
2013-01-17 12:46:00,47.5,38.2,30.18,NNE,27,3.0,5.0,70,0.00,,---,0.03,VWS V14.01,2013-01-17 18:46:00,
2013-01-17 12:51:00,47.3,38.0,30.18,NNW,345,10.0,10.0,70,0.00,,---,0.03,VWS V14.01,2013-01-17 18:51:00,
2013-01-17 12:56:00,47.1,38.2,30.18,NNW,336,4.0,5.0,71,0.00,,---,0.03,VWS V14.01,2013-01-17 18:56:00,
2013-01-17 13:02:00,47.0,38.1,30.19,NW,307,1.0,7.0,71,0.00,,---,0.03,VWS V14.01,2013-01-17 19:02:00,
2013-01-17 13:07:00,47.0,38.5,30.19,NNW,330,3.0,11.0,72,0.00,,---,0.03,VWS V14.01,2013-01-17 19:07:00,
2013-01-17 13:12:00,46.9,38.7,30.18,West,277,2.0,6.0,73,0.00,,---,0.03,VWS V14.01,2013-01-17 19:12:00,
2013-01-17 13:17:00,46.8,38.6,30.19,WSW,242,5.0,7.0,73,0.00,,---,0.03,VWS V14.01,2013-01-17 19:17:00,
2013-01-17 13:22:00,46.8,38.6,30.18,NW,325,3.0,3.0,73,0.00,,---,0.03,VWS V14.01,2013-01-17 19:22:00,
2013-01-17 13:28:00,46.7,38.5,30.18,NNW,331,0.0,3.0,73,0.00,,---,0.03,VWS V14.01,2013-01-17 19:28:00,
2013-01-17 13:33:00,46.8,38.6,30.18,SW,234,3.0,4.0,73,0.00,,---,0.03,VWS V14.01,2013-01-17 19:33:00,
2013-01-17 13:38:00,47.2,39.0,30.17,SSE,155,2.0,6.0,73,0.00,,---,0.03,VWS V14.01,2013-01-17 19:38:00,
2013-01-17 13:43:00,47.7,39.1,30.17,NW,325,2.0,5.0,72,0.00,,---,0.03,VWS V14.01,2013-01-17 19:43:00,
2013-01-17 13:48:00,48.2,39.6,30.18,WNW,289,4.0,9.0,72,0.00,,---,0.03,VWS V14.01,2013-01-17 19:48:00,
2013-01-17 13:53:00,48.3,39.7,30.18,NW,326,3.0,5.0,72,0.00,,---,0.03,VWS V14.01,2013-01-17 19:53:00,
2013-01-17 13:59:00,48.4,39.1,30.18,NNW,329,2.0,9.0,70,0.00,,---,0.03,VWS V14.01,2013-01-17 19:59:00,
2013-01-17 14:05:00,48.8,39.5,30.18,NNW,348,4.0,6.0,70,0.00,,---,0.03,VWS V14.01,2013-01-17 20:05:00,
2013-01-17 14:10:00,49.1,39.4,30.18,WSW,257,1.0,11.0,69,0.00,,---,0.03,VWS V14.01,2013-01-17 20:10:00,
2013-01-17 14:15:00,49.0,38.9,30.18,NNW,331,3.0,8.0,68,0.00,,---,0.03,VWS V14.01,2013-01-17 20:15:00,
2013-01-17 14:20:00,48.9,39.2,30.18,NW,313,1.0,2.0,69,0.00,,---,0.03,VWS V14.01,2013-01-17 20:20:00,
2013-01-17 14:25:00,49.0,38.9,30.18,NW,313,3.0,12.0,68,0.00,,---,0.03,VWS V14.01,2013-01-17 20:25:00,
2013-01-17 14:30:00,49.6,39.9,30.19,West,273,2.0,3.0,69,0.00,,---,0.03,VWS V14.01,2013-01-17 20:30:00,
2013-01-17 14:36:00,50.6,40.1,30.18,North,8,2.0,3.0,67,0.00,,---,0.03,VWS V14.01,2013-01-17 20:36:00,
2013-01-17 14:41:00,50.7,39.8,30.19,NW,318,3.0,3.0,66,0.00,,---,0.03,VWS V14.01,2013-01-17 20:41:00,
2013-01-17 14:46:00,50.8,39.5,30.19,WSW,256,1.0,2.0,65,0.00,,---,0.03,VWS V14.01,2013-01-17 20:46:00,
2013-01-17 14:51:00,51.0,39.7,30.19,WNW,302,4.0,4.0,65,0.00,,---,0.03,VWS V14.01,2013-01-17 20:51:00,
2013-01-17 14:56:00,51.2,39.5,30.19,East,85,3.0,5.0,64,0.00,,---,0.03,VWS V14.01,2013-01-17 20:56:00,
2013-01-17 15:01:00,51.3,38.3,30.20,WNW,299,7.0,7.0,61,0.00,,---,0.03,VWS V14.01,2013-01-17 21:01:00,
2013-01-17 15:07:00,50.9,38.0,30.20,NNE,22,6.0,6.0,61,0.00,,---,0.03,VWS V14.01,2013-01-17 21:07:00,
2013-01-17 15:12:00,50.8,37.4,30.20,WNW,299,5.0,6.0,60,0.00,,---,0.03,VWS V14.01,2013-01-17 21:12:00,
2013-01-17 15:17:00,50.8,37.8,30.21,WNW,299,3.0,5.0,61,0.00,,---,0.03,VWS V14.01,2013-01-17 21:17:00,
2013-01-17 15:22:00,50.9,38.4,30.21,NNW,329,1.0,3.0,62,0.00,,---,0.03,VWS V14.01,2013-01-17 21:22:00,
2013-01-17 15:27:00,51.1,38.5,30.21,West,262,2.0,4.0,62,0.00,,---,0.03,VWS V14.01,2013-01-17 21:27:00,
2013-01-17 15:32:00,51.0,38.0,30.21,West,266,15.0,17.0,61,0.00,,---,0.03,VWS V14.01,2013-01-17 21:32:00,
2013-01-17 15:37:00,50.9,38.4,30.22,NNE,20,4.0,4.0,62,0.00,,---,0.03,VWS V14.01,2013-01-17 21:37:00,
2013-01-17 15:42:00,50.6,38.1,30.22,NE,35,1.0,3.0,62,0.00,,---,0.03,VWS V14.01,2013-01-17 21:42:00,
2013-01-17 15:47:00,50.6,37.7,30.22,NW,322,3.0,4.0,61,0.00,,---,0.03,VWS V14.01,2013-01-17 21:47:00,
2013-01-17 15:52:00,50.8,37.8,30.22,SSW,201,2.0,9.0,61,0.00,,---,0.03,VWS V14.01,2013-01-17 21:52:00,
2013-01-17 15:57:00,50.6,37.7,30.22,NW,311,2.0,3.0,61,0.00,,---,0.03,VWS V14.01,2013-01-17 21:57:00,
2013-01-17 16:02:00,50.6,37.7,30.22,WNW,289,4.0,8.0,61,0.00,,---,0.03,VWS V14.01,2013-01-17 22:02:00,
2013-01-17 16:07:00,50.6,37.7,30.23,NNW,331,4.0,8.0,61,0.00,,---,0.03,VWS V14.01,2013-01-17 22:07:00,
2013-01-17 16:12:00,50.5,38.0,30.23,NNW,338,5.0,5.0,62,0.00,,---,0.03,VWS V14.01,2013-01-17 22:12:00,
2013-01-17 16:17:00,50.5,37.6,30.23,West,259,2.0,6.0,61,0.00,,---,0.03,VWS V14.01,2013-01-17 22:17:00,
2013-01-17 16:22:00,50.2,37.7,30.23,WNW,283,2.0,4.0,62,0.00,,---,0.03,VWS V14.01,2013-01-17 22:22:00,
2013-01-17 16:27:00,50.1,37.6,30.24,NW,318,2.0,5.0,62,0.00,,---,0.03,VWS V14.01,2013-01-17 22:27:00,
2013-01-17 16:32:00,49.9,37.8,30.24,WSW,250,2.0,5.0,63,0.00,,---,0.03,VWS V14.01,2013-01-17 22:32:00,
2013-01-17 16:37:00,49.5,37.8,30.24,NNW,334,5.0,5.0,64,0.00,,---,0.03,VWS V14.01,2013-01-17 22:37:00,
2013-01-17 16:42:00,49.1,37.9,30.25,WNW,288,1.0,2.0,65,0.00,,---,0.03,VWS V14.01,2013-01-17 22:42:00,
2013-01-17 16:47:00,48.8,38.0,30.25,NNW,331,3.0,3.0,66,0.00,,---,0.03,VWS V14.01,2013-01-17 22:47:00,
2013-01-17 16:52:00,48.5,37.7,30.25,NW,324,2.0,3.0,66,0.00,,---,0.03,VWS V14.01,2013-01-17 22:52:00,
2013-01-17 16:57:00,48.3,37.9,30.26,NNE,23,3.0,3.0,67,0.00,,---,0.03,VWS V14.01,2013-01-17 22:57:00,
2013-01-17 17:02:00,48.1,37.7,30.26,West,271,3.0,5.0,67,0.00,,---,0.03,VWS V14.01,2013-01-17 23:02:00,
2013-01-17 17:07:00,47.9,37.9,30.27,NW,312,2.0,6.0,68,0.00,,---,0.03,VWS V14.01,2013-01-17 23:07:00,
2013-01-17 17:12:00,47.7,37.7,30.27,NW,314,0.0,2.0,68,0.00,,---,0.03,VWS V14.01,2013-01-17 23:12:00,
2013-01-17 17:17:00,47.6,37.6,30.28,NNW,337,2.0,4.0,68,0.00,,---,0.03,VWS V14.01,2013-01-17 23:17:00,
2013-01-17 17:22:00,47.3,37.7,30.28,West,267,1.0,6.0,69,0.00,,---,0.03,VWS V14.01,2013-01-17 23:22:00,
2013-01-17 17:27:00,47.1,37.8,30.29,NW,307,3.0,5.0,70,0.00,,---,0.03,VWS V14.01,2013-01-17 23:27:00,
2013-01-17 17:32:00,47.0,37.7,30.29,NNW,333,3.0,4.0,70,0.00,,---,0.03,VWS V14.01,2013-01-17 23:32:00,
2013-01-17 17:37:00,46.9,37.6,30.29,NE,36,2.0,2.0,70,0.00,,---,0.03,VWS V14.01,2013-01-17 23:37:00,
2013-01-17 17:42:00,46.7,37.5,30.29,NNW,328,2.0,4.0,70,0.00,,---,0.03,VWS V14.01,2013-01-17 23:42:00,
2013-01-17 17:47:00,46.6,37.3,30.30,NNW,345,1.0,3.0,70,0.00,,---,0.03,VWS V14.01,2013-01-17 23:47:00,
2013-01-17 17:52:00,46.4,37.9,30.30,NW,312,5.0,6.0,72,0.00,,---,0.03,VWS V14.01,2013-01-17 23:52:00,
2013-01-17 17:57:00,46.3,37.4,30.30,North,4,3.0,4.0,71,0.00,,---,0.03,VWS V14.01,2013-01-17 23:57:00,
2013-01-17 18:02:00,46.2,37.3,30.30,SSW,212,1.0,3.0,71,0.00,,---,0.03,VWS V14.01,2013-01-18 00:02:00,
2013-01-17 18:08:00,46.1,36.9,30.30,WNW,301,2.0,4.0,70,0.00,,---,0.03,VWS V14.01,2013-01-18 00:08:00,
2013-01-17 18:13:00,45.9,37.0,30.31,West,271,2.0,5.0,71,0.00,,---,0.03,VWS V14.01,2013-01-18 00:13:00,
2013-01-17 18:18:00,45.7,37.2,30.31,North,352,3.0,9.0,72,0.00,,---,0.03,VWS V14.01,2013-01-18 00:18:00,
2013-01-17 18:23:00,45.5,37.0,30.31,NNW,330,1.0,3.0,72,0.00,,---,0.03,VWS V14.01,2013-01-18 00:23:00,
2013-01-17 18:28:00,45.3,36.8,30.31,NW,324,3.0,4.0,72,0.00,,---,0.03,VWS V14.01,2013-01-18 00:28:00,
2013-01-17 18:33:00,45.2,37.1,30.32,NW,319,2.0,3.0,73,0.00,,---,0.03,VWS V14.01,2013-01-18 00:33:00,
2013-01-17 18:38:00,45.1,37.0,30.32,NW,308,1.0,2.0,73,0.00,,---,0.03,VWS V14.01,2013-01-18 00:38:00,
2013-01-17 18:43:00,44.9,37.1,30.32,NNW,337,1.0,2.0,74,0.00,,---,0.03,VWS V14.01,2013-01-18 00:43:00,
2013-01-17 18:48:00,44.7,36.9,30.33,NNW,336,0.0,1.0,74,0.00,,---,0.03,VWS V14.01,2013-01-18 00:48:00,
2013-01-17 18:53:00,44.4,37.0,30.33,NNW,336,1.0,2.0,75,0.00,,---,0.03,VWS V14.01,2013-01-18 00:53:00,
2013-01-17 18:58:00,44.4,37.0,30.33,ENE,60,2.0,2.0,75,0.00,,---,0.03,VWS V14.01,2013-01-18 00:58:00,
2013-01-17 19:03:00,44.4,37.0,30.33,WNW,284,1.0,5.0,75,0.00,,---,0.03,VWS V14.01,2013-01-18 01:03:00,
2013-01-17 19:08:00,44.3,36.9,30.33,NW,311,2.0,3.0,75,0.00,,---,0.03,VWS V14.01,2013-01-18 01:08:00,
2013-01-17 19:13:00,44.3,36.9,30.33,WNW,290,3.0,3.0,75,0.00,,---,0.03,VWS V14.01,2013-01-18 01:13:00,
2013-01-17 19:18:00,44.2,36.8,30.33,WNW,296,1.0,1.0,75,0.00,,---,0.03,VWS V14.01,2013-01-18 01:18:00,
2013-01-17 19:23:00,44.0,36.9,30.33,NW,308,2.0,4.0,76,0.00,,---,0.03,VWS V14.01,2013-01-18 01:23:00,
2013-01-17 19:28:00,44.0,36.9,30.33,NW,321,1.0,2.0,76,0.00,,---,0.03,VWS V14.01,2013-01-18 01:28:00,
2013-01-17 19:33:00,43.8,36.7,30.34,NW,324,1.0,1.0,76,0.00,,---,0.03,VWS V14.01,2013-01-18 01:33:00,
2013-01-17 19:38:00,43.6,36.9,30.34,NW,311,1.0,3.0,77,0.00,,---,0.03,VWS V14.01,2013-01-18 01:38:00,
2013-01-17 19:43:00,43.5,36.8,30.34,NW,319,1.0,2.0,77,0.00,,---,0.03,VWS V14.01,2013-01-18 01:43:00,
2013-01-17 19:48:00,43.4,37.0,30.34,NW,314,2.0,2.0,78,0.00,,---,0.03,VWS V14.01,2013-01-18 01:48:00,
2013-01-17 19:53:00,43.2,36.8,30.34,NW,324,1.0,3.0,78,0.00,,---,0.03,VWS V14.01,2013-01-18 01:53:00,
2013-01-17 19:59:00,43.2,36.8,30.34,NW,313,1.0,2.0,78,0.00,,---,0.03,VWS V14.01,2013-01-18 01:59:00,
2013-01-17 20:04:00,43.2,36.8,30.34,NW,323,2.0,2.0,78,0.00,,---,0.03,VWS V14.01,2013-01-18 02:04:00,
2013-01-17 20:09:00,43.2,36.8,30.34,NW,323,3.0,3.0,78,0.00,,---,0.03,VWS V14.01,2013-01-18 02:09:00,
2013-01-17 20:14:00,43.1,36.7,30.35,NNW,330,2.0,3.0,78,0.00,,---,0.03,VWS V14.01,2013-01-18 02:14:00,
2013-01-17 20:19:00,43.2,36.8,30.35,NW,325,2.0,5.0,78,0.00,,---,0.03,VWS V14.01,2013-01-18 02:19:00,
2013-01-17 20:24:00,43.2,36.8,30.35,West,270,0.0,2.0,78,0.00,,---,0.03,VWS V14.01,2013-01-18 02:24:00,
2013-01-17 20:29:00,43.0,36.9,30.35,NNW,341,1.0,1.0,79,0.00,,---,0.03,VWS V14.01,2013-01-18 02:29:00,
2013-01-17 20:34:00,42.9,36.8,30.35,NW,323,2.0,3.0,79,0.00,,---,0.03,VWS V14.01,2013-01-18 02:34:00,
2013-01-17 20:40:00,42.9,36.8,30.35,West,280,2.0,3.0,79,0.00,,---,0.03,VWS V14.01,2013-01-18 02:40:00,
2013-01-17 20:45:00,42.9,36.8,30.35,NW,311,1.0,1.0,79,0.00,,---,0.03,VWS V14.01,2013-01-18 02:45:00,
2013-01-17 20:50:00,42.8,36.8,30.35,WNW,302,0.0,0.0,79,0.00,,---,0.03,VWS V14.01,2013-01-18 02:50:00,
2013-01-17 20:55:00,42.6,36.9,30.35,WSW,255,0.0,1.0,80,0.00,,---,0.03,VWS V14.01,2013-01-18 02:55:00,
2013-01-17 21:00:00,42.5,36.8,30.36,NNW,328,1.0,1.0,80,0.00,,---,0.03,VWS V14.01,2013-01-18 03:00:00,
2013-01-17 21:06:00,42.7,37.0,30.36,North,353,2.0,3.0,80,0.00,,---,0.03,VWS V14.01,2013-01-18 03:06:00,
2013-01-17 21:11:00,42.8,37.1,30.36,NNW,343,1.0,5.0,80,0.00,,---,0.03,VWS V14.01,2013-01-18 03:11:00,
2013-01-17 21:16:00,42.8,36.8,30.36,North,6,1.0,3.0,79,0.00,,---,0.03,VWS V14.01,2013-01-18 03:16:00,
2013-01-17 21:21:00,42.9,36.8,30.36,NW,320,2.0,3.0,79,0.00,,---,0.03,VWS V14.01,2013-01-18 03:21:00,
2013-01-17 21:26:00,42.9,36.8,30.36,NNW,335,4.0,7.0,79,0.00,,---,0.03,VWS V14.01,2013-01-18 03:26:00,
2013-01-17 21:31:00,43.0,36.9,30.36,North,355,2.0,5.0,79,0.00,,---,0.03,VWS V14.01,2013-01-18 03:31:00,
2013-01-17 21:37:00,42.9,36.8,30.36,NNW,328,4.0,4.0,79,0.00,,---,0.03,VWS V14.01,2013-01-18 03:37:00,
2013-01-17 21:43:00,42.7,37.0,30.36,NW,324,1.0,2.0,80,0.00,,---,0.03,VWS V14.01,2013-01-18 03:43:00,
2013-01-17 21:48:00,42.6,36.9,30.36,NE,35,3.0,3.0,80,0.00,,---,0.03,VWS V14.01,2013-01-18 03:48:00,
2013-01-17 21:53:00,42.5,36.8,30.36,North,9,1.0,2.0,80,0.00,,---,0.03,VWS V14.01,2013-01-18 03:53:00,
2013-01-17 21:59:00,42.4,37.0,30.36,NW,321,0.0,1.0,81,0.00,,---,0.03,VWS V14.01,2013-01-18 03:59:00,
2013-01-17 22:04:00,42.2,36.8,30.36,NNW,335,1.0,1.0,81,0.00,,---,0.03,VWS V14.01,2013-01-18 04:04:00,
2013-01-17 22:09:00,42.1,37.0,30.36,WNW,302,2.0,4.0,82,0.00,,---,0.03,VWS V14.01,2013-01-18 04:09:00,
2013-01-17 22:15:00,42.0,36.9,30.36,WSW,240,0.0,2.0,82,0.00,,---,0.03,VWS V14.01,2013-01-18 04:15:00,
2013-01-17 22:20:00,42.0,36.9,30.36,NNW,328,2.0,3.0,82,0.00,,---,0.03,VWS V14.01,2013-01-18 04:20:00,
2013-01-17 22:25:00,41.8,36.7,30.36,ENE,70,2.0,2.0,82,0.00,,---,0.03,VWS V14.01,2013-01-18 04:25:00,
2013-01-17 22:30:00,41.7,36.9,30.36,NNW,331,2.0,3.0,83,0.00,,---,0.03,VWS V14.01,2013-01-18 04:30:00,
2013-01-17 22:35:00,41.6,36.8,30.36,NW,322,0.0,1.0,83,0.00,,---,0.03,VWS V14.01,2013-01-18 04:35:00,
2013-01-17 22:41:00,41.5,36.7,30.36,NW,316,1.0,4.0,83,0.00,,---,0.03,VWS V14.01,2013-01-18 04:41:00,
2013-01-17 22:46:00,41.5,36.7,30.36,NW,322,0.0,2.0,83,0.00,,---,0.03,VWS V14.01,2013-01-18 04:46:00,
2013-01-17 22:52:00,41.4,36.6,30.36,NW,320,0.0,3.0,83,0.00,,---,0.03,VWS V14.01,2013-01-18 04:52:00,
2013-01-17 22:57:00,41.3,36.8,30.36,NNW,341,1.0,2.0,84,0.00,,---,0.03,VWS V14.01,2013-01-18 04:57:00,
2013-01-17 23:02:00,41.3,36.8,30.36,NNW,332,1.0,1.0,84,0.00,,---,0.03,VWS V14.01,2013-01-18 05:02:00,
2013-01-17 23:03:00,41.3,36.8,30.36,NNW,331,0.0,2.0,84,0.00,,---,0.03,VWS V14.01,2013-01-18 05:03:00,
2013-01-17 23:04:00,41.2,36.7,30.36,WNW,297,2.0,4.0,84,0.00,,---,0.03,VWS V14.01,2013-01-18 05:04:00,
2013-01-17 23:06:00,41.2,36.7,30.36,NNW,342,0.0,1.0,84,0.00,,---,0.03,VWS V14.01,2013-01-18 05:06:00,
2013-01-17 23:11:00,41.1,36.6,30.36,NNW,345,0.0,1.0,84,0.00,,---,0.03,VWS V14.01,2013-01-18 05:11:00,
2013-01-17 23:16:00,41.0,36.8,30.36,NNE,29,0.0,2.0,85,0.00,,---,0.03,VWS V14.01,2013-01-18 05:16:00,
2013-01-17 23:21:00,40.9,36.8,30.36,WNW,287,1.0,1.0,85,0.00,,---,0.03,VWS V14.01,2013-01-18 05:21:00,
2013-01-17 23:26:00,40.8,36.7,30.36,NW,318,1.0,1.0,85,0.00,,---,0.03,VWS V14.01,2013-01-18 05:26:00,
2013-01-17 23:31:00,40.8,36.7,30.37,NNE,29,1.0,1.0,85,0.00,,---,0.03,VWS V14.01,2013-01-18 05:31:00,
2013-01-17 23:36:00,40.7,36.5,30.37,NNW,338,0.0,2.0,85,0.00,,---,0.03,VWS V14.01,2013-01-18 05:36:00,
2013-01-17 23:41:00,40.6,36.8,30.37,West,278,1.0,1.0,86,0.00,,---,0.03,VWS V14.01,2013-01-18 05:41:00,
2013-01-17 23:46:00,40.5,36.7,30.37,SSW,204,0.0,1.0,86,0.00,,---,0.03,VWS V14.01,2013-01-18 05:46:00,
2013-01-17 23:51:00,40.3,36.5,30.37,North,353,4.0,4.0,86,0.00,,---,0.03,VWS V14.01,2013-01-18 05:51:00,
2013-01-17 23:57:00,40.4,36.5,30.37,NNE,15,1.0,1.0,86,0.00,,---,0.03,VWS V14.01,2013-01-18 05:57:00,